Time,TemperatureF,DewpointF,PressureIn,WindDirection,WindDirectionDegrees,WindSpeedMPH,WindSpeedGustMPH,Humidity,HourlyPrecipIn,Conditions,Clouds,dailyrainin,SoftwareType,DateUTC
2013-03-17 00:02:00,40.0,34.0,30.00,NE,55,9.0,12.0,77,-99.99,,,-99.99,,2013-03-17 05:02:00,
2013-03-17 00:12:00,40.0,33.0,30.00,ENE,60,9.0,13.0,77,-99.99,,,-99.99,,2013-03-17 05:12:00,
2013-03-17 00:22:00,40.0,33.0,30.00,ENE,60,9.0,13.0,77,-99.99,,,-99.99,,2013-03-17 05:22:00,
2013-03-17 00:32:00,40.0,33.0,30.01,ENE,75,5.0,13.0,76,-99.99,,,-99.99,,2013-03-17 05:32:00,
2013-03-17 00:42:00,40.0,33.0,30.00,ENE,65,8.0,14.0,76,-99.99,,,-99.99,,2013-03-17 05:42:00,
2013-03-17 00:52:00,40.0,33.0,30.00,ENE,65,8.0,14.0,76,-99.99,,,-99.99,,2013-03-17 05:52:00,
2013-03-17 01:02:00,40.0,32.0,29.99,ENE,70,13.0,17.0,74,-99.99,,,-99.99,,2013-03-17 06:02:00,
2013-03-17 01:12:00,40.0,32.0,30.00,ENE,65,9.0,14.0,75,-99.99,,,-99.99,,2013-03-17 06:12:00,
2013-03-17 01:22:00,40.0,32.0,30.00,ENE,65,9.0,14.0,75,-99.99,,,-99.99,,2013-03-17 06:22:00,
2013-03-17 01:32:00,39.0,31.0,30.00,ENE,65,10.0,16.0,74,-99.99,,,-99.99,,2013-03-17 06:32:00,
2013-03-17 01:42:00,39.0,32.0,30.01,ENE,75,9.0,15.0,75,-99.99,,,-99.99,,2013-03-17 06:42:00,
2013-03-17 01:52:00,39.0,32.0,30.01,ENE,75,9.0,15.0,75,-99.99,,,-99.99,,2013-03-17 06:52:00,
2013-03-17 02:02:00,39.0,31.0,30.01,ENE,60,7.0,13.0,75,-99.99,,,-99.99,,2013-03-17 07:02:00,
2013-03-17 02:12:00,38.0,31.0,30.00,ENE,75,11.0,14.0,76,-99.99,,,-99.99,,2013-03-17 07:12:00,
2013-03-17 02:22:00,38.0,31.0,30.00,ENE,75,11.0,14.0,76,-99.99,,,-99.99,,2013-03-17 07:22:00,
2013-03-17 02:30:00,38.0,32.0,30.02,ENE,60,8.0,14.0,79,-99.99,,,-99.99,,2013-03-17 07:30:00,
2013-03-17 02:32:00,38.0,32.0,30.02,ENE,65,9.0,11.0,79,-99.99,,,-99.99,,2013-03-17 07:32:00,
2013-03-17 02:42:00,38.0,33.0,30.01,ENE,75,6.0,11.0,80,-99.99,,,-99.99,,2013-03-17 07:42:00,
2013-03-17 02:52:00,38.0,33.0,30.01,ENE,75,6.0,11.0,80,-99.99,,,-99.99,,2013-03-17 07:52:00,
2013-03-17 03:03:00,38.0,32.0,30.02,NE,45,7.0,14.0,80,-99.99,,,-99.99,,2013-03-17 08:03:00,
2013-03-17 03:13:00,38.0,32.0,30.02,ENE,60,8.0,14.0,79,-99.99,,,-99.99,,2013-03-17 08:13:00,
2013-03-17 03:22:00,38.0,32.0,30.02,ENE,60,8.0,14.0,79,-99.99,,,-99.99,,2013-03-17 08:22:00,
2013-03-17 03:42:00,37.0,31.0,30.02,ENE,60,10.0,15.0,78,-99.99,,,-99.99,,2013-03-17 08:42:00,
2013-03-17 03:52:00,37.0,31.0,30.02,ENE,60,10.0,15.0,78,-99.99,,,-99.99,,2013-03-17 08:52:00,
2013-03-17 04:03:00,37.0,30.0,30.02,ENE,60,10.0,14.0,77,-99.99,,,-99.99,,2013-03-17 09:03:00,
2013-03-17 04:12:00,37.0,30.0,30.02,ENE,70,8.0,12.0,77,-99.99,,,-99.99,,2013-03-17 09:12:00,
2013-03-17 04:22:00,37.0,30.0,30.02,ENE,70,8.0,12.0,77,-99.99,,,-99.99,,2013-03-17 09:22:00,
2013-03-17 04:32:00,37.0,30.0,30.03,ENE,65,9.0,12.0,76,-99.99,,,-99.99,,2013-03-17 09:32:00,
2013-03-17 04:43:00,37.0,30.0,30.03,NE,55,12.0,14.0,76,-99.99,,,-99.99,,2013-03-17 09:43:00,
2013-03-17 04:53:00,37.0,30.0,30.03,NE,55,12.0,14.0,76,-99.99,,,-99.99,,2013-03-17 09:53:00,
2013-03-17 05:03:00,36.0,29.0,30.02,East,80,9.0,15.0,76,-99.99,,,-99.99,,2013-03-17 10:03:00,
2013-03-17 05:13:00,36.0,29.0,30.02,East,90,10.0,20.0,76,-99.99,,,-99.99,,2013-03-17 10:13:00,
2013-03-17 05:23:00,36.0,29.0,30.02,East,90,10.0,20.0,76,-99.99,,,-99.99,,2013-03-17 10:23:00,
2013-03-17 05:33:00,36.0,29.0,30.02,ENE,75,7.0,14.0,76,-99.99,,,-99.99,,2013-03-17 10:33:00,
2013-03-17 05:42:00,36.0,29.0,30.01,East,85,10.0,15.0,76,-99.99,,,-99.99,,2013-03-17 10:42:00,
2013-03-17 05:52:00,36.0,29.0,30.01,East,85,10.0,15.0,76,-99.99,,,-99.99,,2013-03-17 10:52:00,
2013-03-17 06:02:00,36.0,29.0,30.03,ENE,70,5.0,9.0,77,-99.99,,,-99.99,,2013-03-17 11:02:00,
2013-03-17 06:12:00,36.0,30.0,30.03,ESE,110,3.0,11.0,77,-99.99,,,-99.99,,2013-03-17 11:12:00,
2013-03-17 06:22:00,36.0,30.0,30.03,ESE,110,3.0,11.0,77,-99.99,,,-99.99,,2013-03-17 11:22:00,
2013-03-17 06:32:00,36.0,29.0,30.02,ESE,115,6.0,15.0,76,-99.99,,,-99.99,,2013-03-17 11:32:00,
2013-03-17 06:42:00,36.0,28.0,30.03,East,95,5.0,13.0,75,-99.99,,,-99.99,,2013-03-17 11:42:00,
2013-03-17 06:52:00,36.0,28.0,30.03,East,95,5.0,13.0,75,-99.99,,,-99.99,,2013-03-17 11:52:00,
2013-03-17 07:02:00,36.0,28.0,30.05,East,80,7.0,12.0,73,-99.99,,,-99.99,,2013-03-17 12:02:00,
2013-03-17 07:12:00,35.0,27.0,30.06,ENE,60,14.0,21.0,72,-99.99,,,-99.99,,2013-03-17 12:12:00,
2013-03-17 07:22:00,35.0,27.0,30.06,ENE,60,14.0,21.0,72,-99.99,,,-99.99,,2013-03-17 12:22:00,
2013-03-17 07:33:00,36.0,27.0,30.05,ENE,75,8.0,17.0,70,-99.99,,,-99.99,,2013-03-17 12:33:00,
2013-03-17 07:43:00,35.0,27.0,30.06,ENE,65,9.0,15.0,70,-99.99,,,-99.99,,2013-03-17 12:43:00,
2013-03-17 07:52:00,35.0,27.0,30.06,ENE,65,9.0,15.0,70,-99.99,,,-99.99,,2013-03-17 12:52:00,
2013-03-17 08:02:00,35.0,26.0,30.05,ENE,65,10.0,17.0,68,-99.99,,,-99.99,,2013-03-17 13:02:00,
2013-03-17 08:12:00,35.0,26.0,30.05,East,80,9.0,20.0,68,-99.99,,,-99.99,,2013-03-17 13:12:00,
2013-03-17 08:22:00,35.0,26.0,30.05,East,80,9.0,20.0,68,-99.99,,,-99.99,,2013-03-17 13:22:00,
2013-03-17 08:32:00,35.0,26.0,30.04,East,95,5.0,13.0,69,-99.99,,,-99.99,,2013-03-17 13:32:00,
2013-03-17 08:42:00,35.0,26.0,30.04,ESE,110,6.0,11.0,69,-99.99,,,-99.99,,2013-03-17 13:42:00,
2013-03-17 08:52:00,35.0,26.0,30.04,ESE,110,6.0,11.0,69,-99.99,,,-99.99,,2013-03-17 13:52:00,
2013-03-17 09:02:00,35.0,26.0,30.04,ENE,65,8.0,17.0,70,-99.99,,,-99.99,,2013-03-17 14:02:00,
2013-03-17 09:12:00,35.0,26.0,30.05,East,100,9.0,16.0,69,-99.99,,,-99.99,,2013-03-17 14:12:00,
2013-03-17 09:22:00,35.0,26.0,30.05,East,100,9.0,16.0,69,-99.99,,,-99.99,,2013-03-17 14:22:00,
2013-03-17 09:32:00,35.0,26.0,30.06,East,85,6.0,11.0,70,-99.99,,,-99.99,,2013-03-17 14:32:00,
2013-03-17 09:42:00,35.0,27.0,30.05,East,80,4.0,12.0,71,-99.99,,,-99.99,,2013-03-17 14:42:00,
2013-03-17 09:52:00,35.0,27.0,30.05,East,80,4.0,12.0,71,-99.99,,,-99.99,,2013-03-17 14:52:00,
2013-03-17 10:00:00,36.0,28.0,30.04,East,80,9.0,13.0,73,-99.99,,,-99.99,,2013-03-17 15:00:00,
2013-03-17 10:02:00,35.0,27.0,30.04,ENE,70,6.0,11.0,71,-99.99,,,-99.99,,2013-03-17 15:02:00,
2013-03-17 10:12:00,35.0,27.0,30.05,East,80,9.0,15.0,72,-99.99,,,-99.99,,2013-03-17 15:12:00,
2013-03-17 10:23:00,35.0,27.0,30.05,East,80,9.0,15.0,72,-99.99,,,-99.99,,2013-03-17 15:23:00,
2013-03-17 10:33:00,35.0,27.0,30.04,East,80,8.0,16.0,73,-99.99,,,-99.99,,2013-03-17 15:33:00,
2013-03-17 10:43:00,36.0,28.0,30.04,East,80,9.0,13.0,73,-99.99,,,-99.99,,2013-03-17 15:43:00,
2013-03-17 10:52:00,36.0,28.0,30.04,East,80,9.0,13.0,73,-99.99,,,-99.99,,2013-03-17 15:52:00,
2013-03-17 11:12:00,36.0,28.0,30.05,East,95,4.0,14.0,73,-99.99,,,-99.99,,2013-03-17 16:12:00,
2013-03-17 11:23:00,36.0,28.0,30.05,East,95,4.0,14.0,73,-99.99,,,-99.99,,2013-03-17 16:23:00,
2013-03-17 11:33:00,36.0,28.0,30.05,East,85,5.0,12.0,72,-99.99,,,-99.99,,2013-03-17 16:33:00,
2013-03-17 11:42:00,36.0,27.0,30.04,ESE,105,8.0,15.0,72,-99.99,,,-99.99,,2013-03-17 16:42:00,
2013-03-17 11:52:00,36.0,27.0,30.04,ESE,105,8.0,15.0,72,-99.99,,,-99.99,,2013-03-17 16:52:00,
2013-03-17 12:02:00,36.0,29.0,30.02,ESE,110,4.0,15.0,74,-99.99,,,-99.99,,2013-03-17 17:02:00,
2013-03-17 12:12:00,37.0,30.0,30.02,ENE,70,5.0,12.0,75,-99.99,,,-99.99,,2013-03-17 17:12:00,
2013-03-17 12:22:00,37.0,30.0,30.02,ENE,70,5.0,12.0,75,-99.99,,,-99.99,,2013-03-17 17:22:00,
2013-03-17 12:33:00,36.0,29.0,30.01,ENE,70,7.0,16.0,73,-99.99,,,-99.99,,2013-03-17 17:33:00,
2013-03-17 12:42:00,37.0,29.0,30.02,East,100,7.0,15.0,73,-99.99,,,-99.99,,2013-03-17 17:42:00,
2013-03-17 12:52:00,37.0,29.0,30.02,East,100,7.0,15.0,73,-99.99,,,-99.99,,2013-03-17 17:52:00,
2013-03-17 13:00:00,38.0,29.0,30.00,ENE,75,6.0,17.0,72,-99.99,,,-99.99,,2013-03-17 18:00:00,
2013-03-17 13:02:00,37.0,29.0,30.01,East,80,6.0,14.0,72,-99.99,,,-99.99,,2013-03-17 18:02:00,
2013-03-17 13:12:00,37.0,29.0,30.00,ENE,65,6.0,13.0,72,-99.99,,,-99.99,,2013-03-17 18:12:00,
2013-03-17 13:22:00,37.0,29.0,30.00,ENE,65,6.0,13.0,72,-99.99,,,-99.99,,2013-03-17 18:22:00,
2013-03-17 13:32:00,37.0,29.0,30.00,East,80,9.0,18.0,71,-99.99,,,-99.99,,2013-03-17 18:32:00,
2013-03-17 13:42:00,38.0,29.0,30.00,ENE,75,6.0,17.0,72,-99.99,,,-99.99,,2013-03-17 18:42:00,
2013-03-17 13:52:00,38.0,29.0,30.00,ENE,75,6.0,17.0,72,-99.99,,,-99.99,,2013-03-17 18:52:00,
2013-03-17 14:12:00,38.0,29.0,29.98,East,80,7.0,17.0,71,-99.99,,,-99.99,,2013-03-17 19:12:00,
2013-03-17 14:22:00,38.0,29.0,29.98,East,80,7.0,17.0,71,-99.99,,,-99.99,,2013-03-17 19:22:00,
2013-03-17 14:30:00,38.0,31.0,29.94,ENE,60,2.0,10.0,75,-99.99,,,-99.99,,2013-03-17 19:30:00,
2013-03-17 14:33:00,38.0,30.0,29.96,ENE,65,6.0,11.0,73,-99.99,,,-99.99,,2013-03-17 19:33:00,
2013-03-17 14:42:00,38.0,30.0,29.96,ESE,105,5.0,15.0,73,-99.99,,,-99.99,,2013-03-17 19:42:00,
2013-03-17 14:53:00,38.0,30.0,29.96,ESE,105,5.0,15.0,73,-99.99,,,-99.99,,2013-03-17 19:53:00,
2013-03-17 15:02:00,38.0,30.0,29.95,ENE,75,7.0,15.0,73,-99.99,,,-99.99,,2013-03-17 20:02:00,
2013-03-17 15:12:00,38.0,31.0,29.94,ENE,60,2.0,10.0,75,-99.99,,,-99.99,,2013-03-17 20:12:00,
2013-03-17 15:22:00,38.0,31.0,29.94,ENE,60,2.0,10.0,75,-99.99,,,-99.99,,2013-03-17 20:22:00,
2013-03-17 15:43:00,37.0,31.0,29.93,East,90,4.0,10.0,78,-99.99,,,-99.99,,2013-03-17 20:43:00,
2013-03-17 15:52:00,37.0,31.0,29.93,East,90,4.0,10.0,78,-99.99,,,-99.99,,2013-03-17 20:52:00,
2013-03-17 16:03:00,37.0,31.0,29.94,ESE,110,3.0,9.0,78,-99.99,,,-99.99,,2013-03-17 21:03:00,
2013-03-17 16:12:00,37.0,31.0,29.94,ENE,65,7.0,9.0,79,-99.99,,,-99.99,,2013-03-17 21:12:00,
2013-03-17 16:22:00,37.0,31.0,29.94,ENE,65,7.0,9.0,79,-99.99,,,-99.99,,2013-03-17 21:22:00,
2013-03-17 16:33:00,35.0,30.0,29.91,ENE,75,5.0,10.0,80,-99.99,,,-99.99,,2013-03-17 21:33:00,
2013-03-17 16:43:00,36.0,31.0,29.90,East,95,2.0,8.0,83,-99.99,,,-99.99,,2013-03-17 21:43:00,
2013-03-17 16:52:00,36.0,31.0,29.90,East,95,2.0,8.0,83,-99.99,,,-99.99,,2013-03-17 21:52:00,
2013-03-17 17:03:00,36.0,32.0,29.89,ESE,115,5.0,13.0,84,-99.99,,,-99.99,,2013-03-17 22:03:00,
2013-03-17 17:12:00,36.0,32.0,29.89,SE,125,4.0,11.0,84,-99.99,,,-99.99,,2013-03-17 22:12:00,
2013-03-17 17:23:00,36.0,32.0,29.89,SE,125,4.0,11.0,84,-99.99,,,-99.99,,2013-03-17 22:23:00,
2013-03-17 17:33:00,36.0,32.0,29.87,SE,130,3.0,9.0,84,-99.99,,,-99.99,,2013-03-17 22:33:00,
2013-03-17 17:42:00,36.0,32.0,29.88,NE,55,4.0,10.0,84,-99.99,,,-99.99,,2013-03-17 22:42:00,
2013-03-17 17:52:00,36.0,32.0,29.88,NE,55,4.0,10.0,84,-99.99,,,-99.99,,2013-03-17 22:52:00,
2013-03-17 18:02:00,36.0,32.0,29.87,East,90,8.0,14.0,84,-99.99,,,-99.99,,2013-03-17 23:02:00,
2013-03-17 18:12:00,36.0,32.0,29.87,ENE,75,5.0,12.0,84,-99.99,,,-99.99,,2013-03-17 23:12:00,
2013-03-17 18:22:00,36.0,32.0,29.87,ENE,75,5.0,12.0,84,-99.99,,,-99.99,,2013-03-17 23:22:00,
2013-03-17 18:33:00,36.0,32.0,29.89,ENE,70,7.0,14.0,84,-99.99,,,-99.99,,2013-03-17 23:33:00,
2013-03-17 18:42:00,36.0,32.0,29.91,ENE,60,7.0,12.0,84,-99.99,,,-99.99,,2013-03-17 23:42:00,
2013-03-17 18:52:00,36.0,32.0,29.91,ENE,60,7.0,12.0,84,-99.99,,,-99.99,,2013-03-17 23:52:00,
2013-03-17 19:03:00,36.0,32.0,29.86,ESE,110,3.0,12.0,84,-99.99,,,-99.99,,2013-03-18 00:03:00,
2013-03-17 19:12:00,36.0,32.0,29.87,ESE,105,3.0,10.0,84,-99.99,,,-99.99,,2013-03-18 00:12:00,
2013-03-17 19:22:00,36.0,32.0,29.87,ESE,105,3.0,10.0,84,-99.99,,,-99.99,,2013-03-18 00:22:00,
2013-03-17 19:33:00,36.0,32.0,29.83,ENE,70,6.0,13.0,85,-99.99,,,-99.99,,2013-03-18 00:33:00,
2013-03-17 19:42:00,36.0,32.0,29.83,East,95,7.0,14.0,85,-99.99,,,-99.99,,2013-03-18 00:42:00,
2013-03-17 19:52:00,36.0,32.0,29.83,East,95,7.0,14.0,85,-99.99,,,-99.99,,2013-03-18 00:52:00,
2013-03-17 20:02:00,36.0,32.0,29.84,East,80,2.0,14.0,85,-99.99,,,-99.99,,2013-03-18 01:02:00,
2013-03-17 20:12:00,36.0,32.0,29.83,East,100,8.0,15.0,85,-99.99,,,-99.99,,2013-03-18 01:12:00,
2013-03-17 20:22:00,36.0,32.0,29.83,East,100,8.0,15.0,85,-99.99,,,-99.99,,2013-03-18 01:22:00,
2013-03-17 20:32:00,36.0,32.0,29.83,ESE,110,6.0,12.0,85,-99.99,,,-99.99,,2013-03-18 01:32:00,
2013-03-17 20:42:00,36.0,32.0,29.84,East,90,5.0,12.0,85,-99.99,,,-99.99,,2013-03-18 01:42:00,
2013-03-17 20:52:00,36.0,32.0,29.84,East,90,5.0,12.0,85,-99.99,,,-99.99,,2013-03-18 01:52:00,
2013-03-17 21:02:00,36.0,32.0,29.82,NE,50,3.0,12.0,85,-99.99,,,-99.99,,2013-03-18 02:02:00,
2013-03-17 21:12:00,36.0,32.0,29.83,East,95,3.0,10.0,85,-99.99,,,-99.99,,2013-03-18 02:12:00,
2013-03-17 21:22:00,36.0,32.0,29.83,East,95,3.0,10.0,85,-99.99,,,-99.99,,2013-03-18 02:22:00,
2013-03-17 21:32:00,37.0,33.0,29.81,ESE,120,3.0,10.0,85,-99.99,,,-99.99,,2013-03-18 02:32:00,
2013-03-17 21:42:00,36.0,32.0,29.79,East,85,5.0,13.0,85,-99.99,,,-99.99,,2013-03-18 02:42:00,
2013-03-17 21:52:00,36.0,32.0,29.79,East,85,5.0,13.0,85,-99.99,,,-99.99,,2013-03-18 02:52:00,
2013-03-17 22:03:00,37.0,-99.9,29.81,SSE,160,4.0,16.0,0,-99.99,,,-99.99,,2013-03-18 03:03:00,
2013-03-17 22:11:00,37.0,33.0,29.79,SE,130,6.0,12.0,86,-99.99,,,-99.99,,2013-03-18 03:11:00,
2013-03-17 22:22:00,37.0,33.0,29.79,SE,130,6.0,12.0,86,-99.99,,,-99.99,,2013-03-18 03:22:00,
2013-03-17 22:33:00,37.0,33.0,29.78,SE,130,4.0,18.0,86,-99.99,,,-99.99,,2013-03-18 03:33:00,
2013-03-17 22:42:00,37.0,33.0,29.79,SE,140,4.0,10.0,86,-99.99,,,-99.99,,2013-03-18 03:42:00,
2013-03-17 22:53:00,37.0,33.0,29.79,SE,140,4.0,10.0,86,-99.99,,,-99.99,,2013-03-18 03:53:00,
2013-03-17 23:03:00,37.0,-99.9,29.77,ESE,105,3.0,12.0,0,-99.99,,,-99.99,,2013-03-18 04:03:00,
2013-03-17 23:13:00,37.0,33.0,29.76,East,85,5.0,12.0,86,-99.99,,,-99.99,,2013-03-18 04:13:00,
2013-03-17 23:23:00,37.0,33.0,29.76,East,85,5.0,12.0,86,-99.99,,,-99.99,,2013-03-18 04:23:00,
2013-03-17 23:33:00,37.0,34.0,29.74,SSE,160,3.0,12.0,86,-99.99,,,-99.99,,2013-03-18 04:33:00,
2013-03-17 23:42:00,37.0,-99.9,29.75,ESE,105,3.0,12.0,-999,-99.99,,,-99.99,,2013-03-18 04:42:00,
2013-03-17 23:53:00,37.0,-99.9,29.75,ESE,105,3.0,12.0,-999,-99.99,,,-99.99,,2013-03-18 04:53:00,